sensor_id;sensor_type;location;lat;lon;timestamp;temperature;humidity
5759;DHT22;2904;48.788;9.196;2022-09-28T00:02:16;9.20;99.90
5759;DHT22;2904;48.788;9.196;2022-09-28T00:04:42;9.20;99.90
5759;DHT22;2904;48.788;9.196;2022-09-28T00:07:07;9.20;99.90
5759;DHT22;2904;48.788;9.196;2022-09-28T00:09:33;9.20;99.90
5759;DHT22;2904;48.788;9.196;2022-09-28T00:11:59;9.20;99.90
5759;DHT22;2904;48.788;9.196;2022-09-28T00:14:24;9.20;99.90
5759;DHT22;2904;48.788;9.196;2022-09-28T00:16:50;9.30;99.90
5759;DHT22;2904;48.788;9.196;2022-09-28T00:19:16;9.30;99.90
5759;DHT22;2904;48.788;9.196;2022-09-28T00:21:42;9.30;99.90
5759;DHT22;2904;48.788;9.196;2022-09-28T00:24:11;9.30;99.90
5759;DHT22;2904;48.788;9.196;2022-09-28T00:26:39;9.40;99.90
5759;DHT22;2904;48.788;9.196;2022-09-28T00:29:06;9.40;99.90
5759;DHT22;2904;48.788;9.196;2022-09-28T00:31:33;9.40;99.90
5759;DHT22;2904;48.788;9.196;2022-09-28T00:34:00;9.40;99.90
5759;DHT22;2904;48.788;9.196;2022-09-28T00:36:28;9.40;99.90
5759;DHT22;2904;48.788;9.196;2022-09-28T00:38:58;9.40;99.90
5759;DHT22;2904;48.788;9.196;2022-09-28T00:41:26;9.40;99.90
5759;DHT22;2904;48.788;9.196;2022-09-28T00:43:53;9.40;99.90
5759;DHT22;2904;48.788;9.196;2022-09-28T00:46:48;9.40;99.90
5759;DHT22;2904;48.788;9.196;2022-09-28T00:49:18;9.40;99.90
5759;DHT22;2904;48.788;9.196;2022-09-28T00:51:46;9.40;99.90
5759;DHT22;2904;48.788;9.196;2022-09-28T00:54:14;9.40;99.90
5759;DHT22;2904;48.788;9.196;2022-09-28T00:56:43;9.40;99.90
5759;DHT22;2904;48.788;9.196;2022-09-28T00:59:10;9.50;99.90
5759;DHT22;2904;48.788;9.196;2022-09-28T01:01:36;9.50;99.90
5759;DHT22;2904;48.788;9.196;2022-09-28T01:04:02;9.50;99.90
5759;DHT22;2904;48.788;9.196;2022-09-28T01:06:32;9.50;99.90
5759;DHT22;2904;48.788;9.196;2022-09-28T01:09:03;9.50;99.90
5759;DHT22;2904;48.788;9.196;2022-09-28T01:11:35;9.50;99.90
5759;DHT22;2904;48.788;9.196;2022-09-28T01:14:02;9.40;99.90
5759;DHT22;2904;48.788;9.196;2022-09-28T01:16:44;9.50;99.90
5759;DHT22;2904;48.788;9.196;2022-09-28T01:22:38;9.40;99.90
5759;DHT22;2904;48.788;9.196;2022-09-28T01:29:15;9.40;99.90
5759;DHT22;2904;48.788;9.196;2022-09-28T01:31:46;9.40;99.90
5759;DHT22;2904;48.788;9.196;2022-09-28T01:34:22;9.40;99.90
5759;DHT22;2904;48.788;9.196;2022-09-28T01:36:52;9.40;99.90
5759;DHT22;2904;48.788;9.196;2022-09-28T01:39:33;9.40;99.90
5759;DHT22;2904;48.788;9.196;2022-09-28T01:42:04;9.50;99.90
5759;DHT22;2904;48.788;9.196;2022-09-28T01:44:35;9.40;99.90
5759;DHT22;2904;48.788;9.196;2022-09-28T01:47:07;9.50;99.90
5759;DHT22;2904;48.788;9.196;2022-09-28T01:49:38;9.50;99.90
5759;DHT22;2904;48.788;9.196;2022-09-28T01:52:18;9.50;99.90
5759;DHT22;2904;48.788;9.196;2022-09-28T01:54:52;9.60;99.90
5759;DHT22;2904;48.788;9.196;2022-09-28T01:57:30;9.60;99.90
5759;DHT22;2904;48.788;9.196;2022-09-28T02:00:03;9.70;99.90
5759;DHT22;2904;48.788;9.196;2022-09-28T02:05:39;9.70;99.90
5759;DHT22;2904;48.788;9.196;2022-09-28T02:08:17;9.80;99.90
5759;DHT22;2904;48.788;9.196;2022-09-28T02:11:07;9.80;99.90
5759;DHT22;2904;48.788;9.196;2022-09-28T02:13:40;9.90;99.90
5759;DHT22;2904;48.788;9.196;2022-09-28T02:20:51;9.90;99.90
5759;DHT22;2904;48.788;9.196;2022-09-28T02:23:20;9.90;99.90
5759;DHT22;2904;48.788;9.196;2022-09-28T02:26:00;9.90;99.90
5759;DHT22;2904;48.788;9.196;2022-09-28T02:28:26;9.90;99.90
5759;DHT22;2904;48.788;9.196;2022-09-28T02:30:52;10.00;99.90
5759;DHT22;2904;48.788;9.196;2022-09-28T02:33:22;10.00;99.90
5759;DHT22;2904;48.788;9.196;2022-09-28T02:35:50;10.00;99.90
5759;DHT22;2904;48.788;9.196;2022-09-28T02:38:16;10.00;99.90
5759;DHT22;2904;48.788;9.196;2022-09-28T02:40:46;10.10;99.90
5759;DHT22;2904;48.788;9.196;2022-09-28T03:00:30;10.20;99.90
5759;DHT22;2904;48.788;9.196;2022-09-28T03:03:17;10.20;99.90
5759;DHT22;2904;48.788;9.196;2022-09-28T03:08:51;10.20;99.90
5759;DHT22;2904;48.788;9.196;2022-09-28T03:11:28;10.20;99.90
5759;DHT22;2904;48.788;9.196;2022-09-28T03:13:55;10.20;99.90
5759;DHT22;2904;48.788;9.196;2022-09-28T03:16:21;10.20;99.90
5759;DHT22;2904;48.788;9.196;2022-09-28T03:18:47;10.20;99.90
5759;DHT22;2904;48.788;9.196;2022-09-28T03:21:14;10.20;99.90
5759;DHT22;2904;48.788;9.196;2022-09-28T03:23:41;10.20;99.90
5759;DHT22;2904;48.788;9.196;2022-09-28T03:26:07;10.20;99.90
5759;DHT22;2904;48.788;9.196;2022-09-28T03:28:35;10.20;99.90
5759;DHT22;2904;48.788;9.196;2022-09-28T03:31:02;10.20;99.90
5759;DHT22;2904;48.788;9.196;2022-09-28T03:33:27;10.20;99.90
5759;DHT22;2904;48.788;9.196;2022-09-28T03:35:53;10.20;99.90
5759;DHT22;2904;48.788;9.196;2022-09-28T03:38:19;10.20;99.90
5759;DHT22;2904;48.788;9.196;2022-09-28T03:40:56;10.30;99.90
5759;DHT22;2904;48.788;9.196;2022-09-28T03:43:22;10.20;99.90
5759;DHT22;2904;48.788;9.196;2022-09-28T03:45:55;10.30;99.90
5759;DHT22;2904;48.788;9.196;2022-09-28T03:48:33;10.30;99.90
5759;DHT22;2904;48.788;9.196;2022-09-28T03:51:01;10.30;99.90
5759;DHT22;2904;48.788;9.196;2022-09-28T03:53:28;10.30;99.90
5759;DHT22;2904;48.788;9.196;2022-09-28T03:56:02;10.30;99.90
5759;DHT22;2904;48.788;9.196;2022-09-28T03:58:29;10.30;99.90
5759;DHT22;2904;48.788;9.196;2022-09-28T04:01:00;10.20;99.90
5759;DHT22;2904;48.788;9.196;2022-09-28T04:03:27;10.20;99.90
5759;DHT22;2904;48.788;9.196;2022-09-28T04:05:53;10.10;99.90
5759;DHT22;2904;48.788;9.196;2022-09-28T04:08:18;10.00;99.90
5759;DHT22;2904;48.788;9.196;2022-09-28T04:10:44;9.90;99.90
5759;DHT22;2904;48.788;9.196;2022-09-28T04:13:10;9.70;99.90
5759;DHT22;2904;48.788;9.196;2022-09-28T04:15:36;9.70;99.90
5759;DHT22;2904;48.788;9.196;2022-09-28T04:18:09;9.60;99.90
5759;DHT22;2904;48.788;9.196;2022-09-28T04:20:36;9.60;99.90
5759;DHT22;2904;48.788;9.196;2022-09-28T04:23:02;9.60;99.90
5759;DHT22;2904;48.788;9.196;2022-09-28T04:25:27;9.60;99.90
5759;DHT22;2904;48.788;9.196;2022-09-28T04:27:53;9.60;99.90
5759;DHT22;2904;48.788;9.196;2022-09-28T04:30:37;9.60;99.90
5759;DHT22;2904;48.788;9.196;2022-09-28T04:33:03;9.60;99.90
5759;DHT22;2904;48.788;9.196;2022-09-28T04:35:28;9.60;99.90
5759;DHT22;2904;48.788;9.196;2022-09-28T04:37:54;9.60;99.90
5759;DHT22;2904;48.788;9.196;2022-09-28T04:40:19;9.60;99.90
5759;DHT22;2904;48.788;9.196;2022-09-28T04:42:54;9.60;99.90
5759;DHT22;2904;48.788;9.196;2022-09-28T04:45:21;9.60;99.90
5759;DHT22;2904;48.788;9.196;2022-09-28T04:47:47;9.60;99.90
5759;DHT22;2904;48.788;9.196;2022-09-28T04:50:13;9.60;99.90
5759;DHT22;2904;48.788;9.196;2022-09-28T04:52:39;9.50;99.90
5759;DHT22;2904;48.788;9.196;2022-09-28T04:55:05;9.60;99.90
5759;DHT22;2904;48.788;9.196;2022-09-28T04:57:33;9.60;99.90
5759;DHT22;2904;48.788;9.196;2022-09-28T05:00:00;9.60;99.90
5759;DHT22;2904;48.788;9.196;2022-09-28T05:02:25;9.50;99.90
5759;DHT22;2904;48.788;9.196;2022-09-28T05:04:52;9.50;99.90
5759;DHT22;2904;48.788;9.196;2022-09-28T05:07:19;9.50;99.90
5759;DHT22;2904;48.788;9.196;2022-09-28T05:09:45;9.50;99.90
5759;DHT22;2904;48.788;9.196;2022-09-28T05:12:10;9.50;99.90
5759;DHT22;2904;48.788;9.196;2022-09-28T05:14:36;9.40;99.90
5759;DHT22;2904;48.788;9.196;2022-09-28T05:17:02;9.40;99.90
5759;DHT22;2904;48.788;9.196;2022-09-28T05:19:28;9.40;99.90
5759;DHT22;2904;48.788;9.196;2022-09-28T05:21:54;9.40;99.90
5759;DHT22;2904;48.788;9.196;2022-09-28T05:24:22;9.40;99.90
5759;DHT22;2904;48.788;9.196;2022-09-28T05:26:48;9.40;99.90
5759;DHT22;2904;48.788;9.196;2022-09-28T05:29:13;9.40;99.90
5759;DHT22;2904;48.788;9.196;2022-09-28T05:31:39;9.40;99.90
5759;DHT22;2904;48.788;9.196;2022-09-28T05:34:05;9.40;99.90
5759;DHT22;2904;48.788;9.196;2022-09-28T05:36:30;9.40;99.90
5759;DHT22;2904;48.788;9.196;2022-09-28T05:38:57;9.50;99.90
5759;DHT22;2904;48.788;9.196;2022-09-28T05:41:22;9.50;99.90
5759;DHT22;2904;48.788;9.196;2022-09-28T05:43:48;9.50;99.90
5759;DHT22;2904;48.788;9.196;2022-09-28T05:46:16;9.50;99.90
5759;DHT22;2904;48.788;9.196;2022-09-28T05:48:41;9.40;99.90
5759;DHT22;2904;48.788;9.196;2022-09-28T05:51:07;9.40;99.90
5759;DHT22;2904;48.788;9.196;2022-09-28T05:53:34;9.50;99.90
5759;DHT22;2904;48.788;9.196;2022-09-28T05:56:00;9.40;99.90
5759;DHT22;2904;48.788;9.196;2022-09-28T05:58:27;9.40;99.90
5759;DHT22;2904;48.788;9.196;2022-09-28T06:00:54;9.40;99.90
5759;DHT22;2904;48.788;9.196;2022-09-28T06:03:20;9.40;99.90
5759;DHT22;2904;48.788;9.196;2022-09-28T06:05:46;9.40;99.90
5759;DHT22;2904;48.788;9.196;2022-09-28T06:08:12;9.40;99.90
5759;DHT22;2904;48.788;9.196;2022-09-28T06:10:38;9.30;99.90
5759;DHT22;2904;48.788;9.196;2022-09-28T06:13:04;9.40;99.90
5759;DHT22;2904;48.788;9.196;2022-09-28T06:15:33;9.50;99.90
5759;DHT22;2904;48.788;9.196;2022-09-28T06:18:05;9.50;99.90
5759;DHT22;2904;48.788;9.196;2022-09-28T06:20:36;9.60;99.90
5759;DHT22;2904;48.788;9.196;2022-09-28T06:23:03;9.60;99.90
5759;DHT22;2904;48.788;9.196;2022-09-28T06:25:29;9.60;99.90
5759;DHT22;2904;48.788;9.196;2022-09-28T06:27:59;9.60;99.90
5759;DHT22;2904;48.788;9.196;2022-09-28T06:30:26;9.60;99.90
5759;DHT22;2904;48.788;9.196;2022-09-28T06:32:54;9.60;99.90
5759;DHT22;2904;48.788;9.196;2022-09-28T06:35:21;9.60;99.90
5759;DHT22;2904;48.788;9.196;2022-09-28T06:37:46;9.60;99.90
5759;DHT22;2904;48.788;9.196;2022-09-28T06:40:12;9.70;99.90
5759;DHT22;2904;48.788;9.196;2022-09-28T06:42:38;9.70;99.90
5759;DHT22;2904;48.788;9.196;2022-09-28T06:45:04;9.70;99.90
5759;DHT22;2904;48.788;9.196;2022-09-28T06:47:31;9.80;99.90
5759;DHT22;2904;48.788;9.196;2022-09-28T06:49:58;9.80;99.90
5759;DHT22;2904;48.788;9.196;2022-09-28T06:52:24;9.80;99.90
5759;DHT22;2904;48.788;9.196;2022-09-28T06:54:50;9.80;99.90
5759;DHT22;2904;48.788;9.196;2022-09-28T06:57:16;9.80;99.90
5759;DHT22;2904;48.788;9.196;2022-09-28T06:59:42;9.90;99.90
5759;DHT22;2904;48.788;9.196;2022-09-28T07:02:10;9.90;99.90
5759;DHT22;2904;48.788;9.196;2022-09-28T07:04:40;10.00;99.90
5759;DHT22;2904;48.788;9.196;2022-09-28T07:07:08;10.00;99.90
5759;DHT22;2904;48.788;9.196;2022-09-28T07:09:35;10.00;99.90
5759;DHT22;2904;48.788;9.196;2022-09-28T07:12:01;10.00;99.90
5759;DHT22;2904;48.788;9.196;2022-09-28T07:14:29;10.00;99.90
5759;DHT22;2904;48.788;9.196;2022-09-28T07:16:57;10.00;99.90
5759;DHT22;2904;48.788;9.196;2022-09-28T07:19:23;9.90;99.90
5759;DHT22;2904;48.788;9.196;2022-09-28T07:21:50;9.90;99.90
5759;DHT22;2904;48.788;9.196;2022-09-28T07:24:17;10.00;99.90
5759;DHT22;2904;48.788;9.196;2022-09-28T07:26:43;10.00;99.90
5759;DHT22;2904;48.788;9.196;2022-09-28T07:29:10;10.00;99.90
5759;DHT22;2904;48.788;9.196;2022-09-28T07:31:38;10.10;99.90
5759;DHT22;2904;48.788;9.196;2022-09-28T07:34:03;10.10;99.90
5759;DHT22;2904;48.788;9.196;2022-09-28T07:36:29;10.10;99.90
5759;DHT22;2904;48.788;9.196;2022-09-28T07:38:56;10.20;99.90
5759;DHT22;2904;48.788;9.196;2022-09-28T07:41:21;10.20;99.90
5759;DHT22;2904;48.788;9.196;2022-09-28T07:43:58;10.30;99.90
5759;DHT22;2904;48.788;9.196;2022-09-28T07:46:30;10.30;99.90
5759;DHT22;2904;48.788;9.196;2022-09-28T07:48:56;10.40;99.90
5759;DHT22;2904;48.788;9.196;2022-09-28T07:51:21;10.40;99.90
5759;DHT22;2904;48.788;9.196;2022-09-28T07:53:47;10.40;99.90
5759;DHT22;2904;48.788;9.196;2022-09-28T07:56:13;10.50;99.90
5759;DHT22;2904;48.788;9.196;2022-09-28T07:58:42;10.50;99.90
5759;DHT22;2904;48.788;9.196;2022-09-28T08:01:09;10.60;99.90
5759;DHT22;2904;48.788;9.196;2022-09-28T08:03:36;10.50;99.90
5759;DHT22;2904;48.788;9.196;2022-09-28T08:06:05;10.50;99.90
5759;DHT22;2904;48.788;9.196;2022-09-28T08:08:40;10.60;99.90
5759;DHT22;2904;48.788;9.196;2022-09-28T08:11:11;10.60;99.90
5759;DHT22;2904;48.788;9.196;2022-09-28T08:13:37;10.70;99.90
5759;DHT22;2904;48.788;9.196;2022-09-28T08:16:04;10.70;99.90
5759;DHT22;2904;48.788;9.196;2022-09-28T08:18:30;10.80;99.90
5759;DHT22;2904;48.788;9.196;2022-09-28T08:20:56;10.80;99.90
5759;DHT22;2904;48.788;9.196;2022-09-28T08:23:40;10.80;99.90
5759;DHT22;2904;48.788;9.196;2022-09-28T08:26:06;10.80;99.90
5759;DHT22;2904;48.788;9.196;2022-09-28T08:28:32;10.80;99.90
5759;DHT22;2904;48.788;9.196;2022-09-28T08:31:00;10.90;99.90
5759;DHT22;2904;48.788;9.196;2022-09-28T08:33:26;10.90;99.90
5759;DHT22;2904;48.788;9.196;2022-09-28T08:35:57;10.90;99.90
5759;DHT22;2904;48.788;9.196;2022-09-28T08:38:24;11.10;99.90
5759;DHT22;2904;48.788;9.196;2022-09-28T08:41:38;11.20;99.90
5759;DHT22;2904;48.788;9.196;2022-09-28T08:44:19;11.40;99.90
5759;DHT22;2904;48.788;9.196;2022-09-28T08:46:55;11.50;99.90
5759;DHT22;2904;48.788;9.196;2022-09-28T08:49:35;11.60;99.90
5759;DHT22;2904;48.788;9.196;2022-09-28T08:52:17;11.60;99.90
5759;DHT22;2904;48.788;9.196;2022-09-28T08:59:25;11.20;99.90
5759;DHT22;2904;48.788;9.196;2022-09-28T09:01:57;10.90;99.90
5759;DHT22;2904;48.788;9.196;2022-09-28T09:04:24;10.90;99.90
5759;DHT22;2904;48.788;9.196;2022-09-28T09:10:07;10.90;99.90
5759;DHT22;2904;48.788;9.196;2022-09-28T09:13:00;11.20;99.90
5759;DHT22;2904;48.788;9.196;2022-09-28T09:15:48;11.40;99.90
5759;DHT22;2904;48.788;9.196;2022-09-28T09:18:39;11.50;99.90
5759;DHT22;2904;48.788;9.196;2022-09-28T09:21:15;11.40;99.90
5759;DHT22;2904;48.788;9.196;2022-09-28T09:23:54;11.50;99.90
5759;DHT22;2904;48.788;9.196;2022-09-28T09:34:54;11.70;99.90
5759;DHT22;2904;48.788;9.196;2022-09-28T09:38:22;11.70;99.90
5759;DHT22;2904;48.788;9.196;2022-09-28T09:44:14;11.60;99.90
5759;DHT22;2904;48.788;9.196;2022-09-28T09:46:57;11.80;99.90
5759;DHT22;2904;48.788;9.196;2022-09-28T09:49:42;12.00;99.90
5759;DHT22;2904;48.788;9.196;2022-09-28T09:52:21;12.10;99.90
5759;DHT22;2904;48.788;9.196;2022-09-28T09:54:57;12.10;99.90
5759;DHT22;2904;48.788;9.196;2022-09-28T10:01:17;12.10;99.90
5759;DHT22;2904;48.788;9.196;2022-09-28T10:03:46;12.20;99.90
5759;DHT22;2904;48.788;9.196;2022-09-28T10:06:24;12.20;99.90
5759;DHT22;2904;48.788;9.196;2022-09-28T10:09:02;12.20;99.90
5759;DHT22;2904;48.788;9.196;2022-09-28T10:11:35;12.20;99.90
5759;DHT22;2904;48.788;9.196;2022-09-28T10:14:04;12.10;99.90
5759;DHT22;2904;48.788;9.196;2022-09-28T10:16:31;12.20;99.90
5759;DHT22;2904;48.788;9.196;2022-09-28T10:18:58;12.20;99.90
5759;DHT22;2904;48.788;9.196;2022-09-28T10:21:24;12.30;99.90
5759;DHT22;2904;48.788;9.196;2022-09-28T10:23:58;12.30;99.90
5759;DHT22;2904;48.788;9.196;2022-09-28T10:26:49;12.30;99.90
5759;DHT22;2904;48.788;9.196;2022-09-28T10:29:22;12.30;99.90
5759;DHT22;2904;48.788;9.196;2022-09-28T10:31:50;12.30;99.90
5759;DHT22;2904;48.788;9.196;2022-09-28T10:34:27;12.20;99.90
5759;DHT22;2904;48.788;9.196;2022-09-28T10:37:01;12.30;99.90
5759;DHT22;2904;48.788;9.196;2022-09-28T10:39:33;12.30;99.90
5759;DHT22;2904;48.788;9.196;2022-09-28T10:42:06;12.20;99.90
5759;DHT22;2904;48.788;9.196;2022-09-28T10:44:34;12.10;99.90
5759;DHT22;2904;48.788;9.196;2022-09-28T10:47:05;12.10;99.90
5759;DHT22;2904;48.788;9.196;2022-09-28T10:49:45;12.20;99.90
5759;DHT22;2904;48.788;9.196;2022-09-28T10:52:39;12.30;99.90
5759;DHT22;2904;48.788;9.196;2022-09-28T10:55:26;12.30;99.90
5759;DHT22;2904;48.788;9.196;2022-09-28T10:57:53;12.40;99.90
5759;DHT22;2904;48.788;9.196;2022-09-28T11:00:34;12.30;99.90
5759;DHT22;2904;48.788;9.196;2022-09-28T11:03:01;12.30;99.90
5759;DHT22;2904;48.788;9.196;2022-09-28T11:05:27;12.20;99.90
5759;DHT22;2904;48.788;9.196;2022-09-28T11:07:55;12.20;99.90
5759;DHT22;2904;48.788;9.196;2022-09-28T11:10:24;12.30;99.90
5759;DHT22;2904;48.788;9.196;2022-09-28T11:12:52;12.30;99.90
5759;DHT22;2904;48.788;9.196;2022-09-28T11:15:24;12.20;99.90
5759;DHT22;2904;48.788;9.196;2022-09-28T11:17:51;12.30;99.90
5759;DHT22;2904;48.788;9.196;2022-09-28T11:20:38;12.30;99.90
5759;DHT22;2904;48.788;9.196;2022-09-28T11:23:25;12.40;99.90
5759;DHT22;2904;48.788;9.196;2022-09-28T11:26:00;12.30;99.90
5759;DHT22;2904;48.788;9.196;2022-09-28T11:28:32;12.40;99.90
5759;DHT22;2904;48.788;9.196;2022-09-28T11:30:58;12.40;99.90
5759;DHT22;2904;48.788;9.196;2022-09-28T11:33:34;12.40;99.90
5759;DHT22;2904;48.788;9.196;2022-09-28T11:36:21;12.40;99.90
5759;DHT22;2904;48.788;9.196;2022-09-28T11:42:01;12.50;99.90
5759;DHT22;2904;48.788;9.196;2022-09-28T11:44:44;12.70;99.90
5759;DHT22;2904;48.788;9.196;2022-09-28T11:47:31;12.80;99.90
5759;DHT22;2904;48.788;9.196;2022-09-28T11:50:11;12.80;99.90
5759;DHT22;2904;48.788;9.196;2022-09-28T11:52:47;13.00;99.90
5759;DHT22;2904;48.788;9.196;2022-09-28T11:55:35;13.00;99.90
5759;DHT22;2904;48.788;9.196;2022-09-28T11:58:28;12.90;99.90
5759;DHT22;2904;48.788;9.196;2022-09-28T12:01:26;12.90;99.90
5759;DHT22;2904;48.788;9.196;2022-09-28T12:04:13;13.00;99.90
5759;DHT22;2904;48.788;9.196;2022-09-28T12:06:50;13.10;99.90
5759;DHT22;2904;48.788;9.196;2022-09-28T12:09:57;13.20;99.90
5759;DHT22;2904;48.788;9.196;2022-09-28T12:12:37;13.30;99.90
5759;DHT22;2904;48.788;9.196;2022-09-28T12:15:24;13.40;99.90
5759;DHT22;2904;48.788;9.196;2022-09-28T12:18:25;13.30;99.90
5759;DHT22;2904;48.788;9.196;2022-09-28T12:21:41;13.30;99.90
5759;DHT22;2904;48.788;9.196;2022-09-28T12:24:23;13.50;99.90
5759;DHT22;2904;48.788;9.196;2022-09-28T12:33:06;13.60;99.90
5759;DHT22;2904;48.788;9.196;2022-09-28T12:35:54;14.00;99.90
5759;DHT22;2904;48.788;9.196;2022-09-28T12:38:46;14.10;99.90
5759;DHT22;2904;48.788;9.196;2022-09-28T12:56:10;14.10;99.90
5759;DHT22;2904;48.788;9.196;2022-09-28T12:59:04;13.80;99.90
5759;DHT22;2904;48.788;9.196;2022-09-28T13:06:24;13.70;99.90
5759;DHT22;2904;48.788;9.196;2022-09-28T13:09:22;13.80;99.90
5759;DHT22;2904;48.788;9.196;2022-09-28T13:15:26;13.90;99.90
5759;DHT22;2904;48.788;9.196;2022-09-28T13:24:01;13.80;99.90
5759;DHT22;2904;48.788;9.196;2022-09-28T13:26:35;14.00;99.90
5759;DHT22;2904;48.788;9.196;2022-09-28T13:29:13;14.00;99.90
5759;DHT22;2904;48.788;9.196;2022-09-28T13:31:49;14.00;99.90
5759;DHT22;2904;48.788;9.196;2022-09-28T13:34:21;14.10;99.90
5759;DHT22;2904;48.788;9.196;2022-09-28T13:40:07;14.10;99.90
5759;DHT22;2904;48.788;9.196;2022-09-28T13:42:59;14.10;99.90
5759;DHT22;2904;48.788;9.196;2022-09-28T13:45:38;14.10;99.90
5759;DHT22;2904;48.788;9.196;2022-09-28T13:48:27;14.10;99.90
5759;DHT22;2904;48.788;9.196;2022-09-28T13:55:40;14.10;99.90
5759;DHT22;2904;48.788;9.196;2022-09-28T13:58:34;14.00;99.90
5759;DHT22;2904;48.788;9.196;2022-09-28T14:01:14;14.10;99.90
5759;DHT22;2904;48.788;9.196;2022-09-28T14:04:15;14.30;99.90
5759;DHT22;2904;48.788;9.196;2022-09-28T14:06:55;14.40;99.90
5759;DHT22;2904;48.788;9.196;2022-09-28T14:10:53;14.30;99.90
5759;DHT22;2904;48.788;9.196;2022-09-28T14:13:57;14.20;99.90
5759;DHT22;2904;48.788;9.196;2022-09-28T14:16:25;14.00;99.90
5759;DHT22;2904;48.788;9.196;2022-09-28T14:19:02;14.00;99.90
5759;DHT22;2904;48.788;9.196;2022-09-28T14:24:11;14.00;99.90
5759;DHT22;2904;48.788;9.196;2022-09-28T14:31:55;14.10;99.90
5759;DHT22;2904;48.788;9.196;2022-09-28T14:34:36;14.50;99.90
5759;DHT22;2904;48.788;9.196;2022-09-28T14:37:04;14.90;99.90
5759;DHT22;2904;48.788;9.196;2022-09-28T14:40:23;15.50;99.90
5759;DHT22;2904;48.788;9.196;2022-09-28T14:43:27;16.10;99.90
5759;DHT22;2904;48.788;9.196;2022-09-28T14:49:46;15.80;99.90
5759;DHT22;2904;48.788;9.196;2022-09-28T14:52:16;15.30;99.90
5759;DHT22;2904;48.788;9.196;2022-09-28T14:54:53;15.00;99.90
5759;DHT22;2904;48.788;9.196;2022-09-28T14:57:24;14.90;99.90
5759;DHT22;2904;48.788;9.196;2022-09-28T14:59:50;14.80;99.90
5759;DHT22;2904;48.788;9.196;2022-09-28T15:02:23;14.60;99.90
5759;DHT22;2904;48.788;9.196;2022-09-28T15:05:15;14.40;99.90
5759;DHT22;2904;48.788;9.196;2022-09-28T15:07:52;14.20;99.90
5759;DHT22;2904;48.788;9.196;2022-09-28T15:10:33;14.30;99.90
5759;DHT22;2904;48.788;9.196;2022-09-28T15:13:04;14.30;99.90
5759;DHT22;2904;48.788;9.196;2022-09-28T15:15:38;14.20;99.90
5759;DHT22;2904;48.788;9.196;2022-09-28T15:21:00;14.20;99.90
5759;DHT22;2904;48.788;9.196;2022-09-28T15:23:34;14.20;99.90
5759;DHT22;2904;48.788;9.196;2022-09-28T15:26:00;14.20;99.90
5759;DHT22;2904;48.788;9.196;2022-09-28T15:28:26;14.30;99.90
5759;DHT22;2904;48.788;9.196;2022-09-28T15:31:00;14.20;99.90
5759;DHT22;2904;48.788;9.196;2022-09-28T15:33:33;14.20;99.90
5759;DHT22;2904;48.788;9.196;2022-09-28T15:36:23;14.20;99.90
5759;DHT22;2904;48.788;9.196;2022-09-28T15:39:05;14.20;99.90
5759;DHT22;2904;48.788;9.196;2022-09-28T15:41:35;14.20;99.90
5759;DHT22;2904;48.788;9.196;2022-09-28T15:47:15;14.00;99.90
5759;DHT22;2904;48.788;9.196;2022-09-28T15:50:01;14.00;99.90
5759;DHT22;2904;48.788;9.196;2022-09-28T15:52:42;14.00;99.90
5759;DHT22;2904;48.788;9.196;2022-09-28T15:55:26;14.00;99.90
5759;DHT22;2904;48.788;9.196;2022-09-28T15:58:14;14.00;99.90
5759;DHT22;2904;48.788;9.196;2022-09-28T16:00:40;13.90;99.90
5759;DHT22;2904;48.788;9.196;2022-09-28T16:03:28;13.90;99.90
5759;DHT22;2904;48.788;9.196;2022-09-28T16:06:08;13.90;99.90
5759;DHT22;2904;48.788;9.196;2022-09-28T16:08:39;13.80;99.90
5759;DHT22;2904;48.788;9.196;2022-09-28T16:12:08;13.80;99.90
5759;DHT22;2904;48.788;9.196;2022-09-28T16:14:35;13.90;99.90
5759;DHT22;2904;48.788;9.196;2022-09-28T16:17:01;13.90;99.90
5759;DHT22;2904;48.788;9.196;2022-09-28T16:19:34;13.90;99.90
5759;DHT22;2904;48.788;9.196;2022-09-28T16:22:06;14.00;99.90
5759;DHT22;2904;48.788;9.196;2022-09-28T16:24:37;14.10;99.90
5759;DHT22;2904;48.788;9.196;2022-09-28T16:27:21;13.90;99.90
5759;DHT22;2904;48.788;9.196;2022-09-28T16:30:15;13.90;99.90
5759;DHT22;2904;48.788;9.196;2022-09-28T16:33:04;13.80;99.90
5759;DHT22;2904;48.788;9.196;2022-09-28T16:35:51;13.70;99.90
5759;DHT22;2904;48.788;9.196;2022-09-28T16:38:18;13.50;99.90
5759;DHT22;2904;48.788;9.196;2022-09-28T16:40:46;13.30;99.90
5759;DHT22;2904;48.788;9.196;2022-09-28T16:43:30;13.20;99.90
5759;DHT22;2904;48.788;9.196;2022-09-28T16:46:05;13.20;99.90
5759;DHT22;2904;48.788;9.196;2022-09-28T16:48:45;13.00;99.90
5759;DHT22;2904;48.788;9.196;2022-09-28T16:51:17;13.00;99.90
5759;DHT22;2904;48.788;9.196;2022-09-28T16:53:44;12.90;99.90
5759;DHT22;2904;48.788;9.196;2022-09-28T16:58:47;12.80;99.90
5759;DHT22;2904;48.788;9.196;2022-09-28T17:01:14;12.60;99.90
5759;DHT22;2904;48.788;9.196;2022-09-28T17:03:40;12.50;99.90
5759;DHT22;2904;48.788;9.196;2022-09-28T17:06:11;12.50;99.90
5759;DHT22;2904;48.788;9.196;2022-09-28T17:08:38;12.40;99.90
5759;DHT22;2904;48.788;9.196;2022-09-28T17:11:04;12.30;99.90
5759;DHT22;2904;48.788;9.196;2022-09-28T17:13:31;12.30;99.90
5759;DHT22;2904;48.788;9.196;2022-09-28T17:16:03;12.20;99.90
5759;DHT22;2904;48.788;9.196;2022-09-28T17:18:30;12.10;99.90
5759;DHT22;2904;48.788;9.196;2022-09-28T17:20:58;12.10;99.90
5759;DHT22;2904;48.788;9.196;2022-09-28T17:23:27;12.00;99.90
5759;DHT22;2904;48.788;9.196;2022-09-28T17:25:52;11.90;99.90
5759;DHT22;2904;48.788;9.196;2022-09-28T17:28:23;11.90;99.90
5759;DHT22;2904;48.788;9.196;2022-09-28T17:30:51;11.80;99.90
5759;DHT22;2904;48.788;9.196;2022-09-28T17:33:16;11.70;99.90
5759;DHT22;2904;48.788;9.196;2022-09-28T17:35:43;11.60;99.90
5759;DHT22;2904;48.788;9.196;2022-09-28T17:38:11;11.50;99.90
5759;DHT22;2904;48.788;9.196;2022-09-28T17:40:37;11.50;99.90
5759;DHT22;2904;48.788;9.196;2022-09-28T17:43:03;11.40;99.90
5759;DHT22;2904;48.788;9.196;2022-09-28T17:45:31;11.40;99.90
5759;DHT22;2904;48.788;9.196;2022-09-28T17:47:57;11.30;99.90
5759;DHT22;2904;48.788;9.196;2022-09-28T17:50:32;11.30;99.90
5759;DHT22;2904;48.788;9.196;2022-09-28T17:52:59;11.20;99.90
5759;DHT22;2904;48.788;9.196;2022-09-28T17:55:31;11.20;99.90
5759;DHT22;2904;48.788;9.196;2022-09-28T17:57:58;11.10;99.90
5759;DHT22;2904;48.788;9.196;2022-09-28T18:00:26;10.40;99.90
5759;DHT22;2904;48.788;9.196;2022-09-28T18:02:53;11.00;99.90
5759;DHT22;2904;48.788;9.196;2022-09-28T18:05:20;10.90;99.90
5759;DHT22;2904;48.788;9.196;2022-09-28T18:07:46;10.80;99.90
5759;DHT22;2904;48.788;9.196;2022-09-28T18:10:18;10.80;99.90
5759;DHT22;2904;48.788;9.196;2022-09-28T18:12:44;10.80;99.90
5759;DHT22;2904;48.788;9.196;2022-09-28T18:15:10;10.80;99.90
5759;DHT22;2904;48.788;9.196;2022-09-28T18:17:37;10.70;99.90
5759;DHT22;2904;48.788;9.196;2022-09-28T18:20:04;10.70;99.90
5759;DHT22;2904;48.788;9.196;2022-09-28T18:22:30;10.70;99.90
5759;DHT22;2904;48.788;9.196;2022-09-28T18:24:56;10.70;99.90
5759;DHT22;2904;48.788;9.196;2022-09-28T18:27:21;10.60;99.90
5759;DHT22;2904;48.788;9.196;2022-09-28T18:29:47;10.60;99.90
5759;DHT22;2904;48.788;9.196;2022-09-28T18:32:12;10.60;99.90
5759;DHT22;2904;48.788;9.196;2022-09-28T18:34:38;10.50;99.90
5759;DHT22;2904;48.788;9.196;2022-09-28T18:37:04;10.50;99.90
5759;DHT22;2904;48.788;9.196;2022-09-28T18:39:30;10.50;99.90
5759;DHT22;2904;48.788;9.196;2022-09-28T18:41:56;10.50;99.90
5759;DHT22;2904;48.788;9.196;2022-09-28T18:44:22;10.40;99.90
5759;DHT22;2904;48.788;9.196;2022-09-28T18:46:47;10.40;99.90
5759;DHT22;2904;48.788;9.196;2022-09-28T18:49:13;10.40;99.90